sensor_id;sensor_type;location;lat;lon;timestamp;P1;durP1;ratioP1;P2;durP2;ratioP2
52708;SDS011;38606;52.986;6.980;2022-07-06T00:01:18;4.97;;;1.23;;
52708;SDS011;38606;52.986;6.980;2022-07-06T00:03:44;6.78;;;1.27;;
52708;SDS011;38606;52.986;6.980;2022-07-06T00:06:10;4.60;;;1.42;;
52708;SDS011;38606;52.986;6.980;2022-07-06T00:08:35;3.50;;;1.20;;
52708;SDS011;38606;52.986;6.980;2022-07-06T00:11:01;5.68;;;1.30;;
52708;SDS011;38606;52.986;6.980;2022-07-06T00:13:27;4.38;;;1.40;;
52708;SDS011;38606;52.986;6.980;2022-07-06T00:15:53;7.25;;;1.35;;
52708;SDS011;38606;52.986;6.980;2022-07-06T00:18:19;8.93;;;1.33;;
52708;SDS011;38606;52.986;6.980;2022-07-06T00:20:44;6.88;;;1.10;;
52708;SDS011;38606;52.986;6.980;2022-07-06T00:23:10;3.85;;;1.13;;
52708;SDS011;38606;52.986;6.980;2022-07-06T00:25:36;6.38;;;1.10;;
52708;SDS011;38606;52.986;6.980;2022-07-06T00:28:02;4.72;;;2.03;;
52708;SDS011;38606;52.986;6.980;2022-07-06T00:30:28;6.20;;;1.10;;
52708;SDS011;38606;52.986;6.980;2022-07-06T00:32:54;6.78;;;1.30;;
52708;SDS011;38606;52.986;6.980;2022-07-06T00:35:20;4.78;;;1.23;;
52708;SDS011;38606;52.986;6.980;2022-07-06T00:37:46;7.80;;;1.20;;
52708;SDS011;38606;52.986;6.980;2022-07-06T00:40:11;5.93;;;1.40;;
52708;SDS011;38606;52.986;6.980;2022-07-06T00:42:41;4.95;;;1.45;;
52708;SDS011;38606;52.986;6.980;2022-07-06T00:45:08;5.13;;;1.40;;
52708;SDS011;38606;52.986;6.980;2022-07-06T00:47:35;3.30;;;1.20;;
52708;SDS011;38606;52.986;6.980;2022-07-06T00:50:01;4.28;;;1.30;;
52708;SDS011;38606;52.986;6.980;2022-07-06T00:52:49;4.82;;;0.93;;
52708;SDS011;38606;52.986;6.980;2022-07-06T00:55:18;8.07;;;1.10;;
52708;SDS011;38606;52.986;6.980;2022-07-06T00:57:46;4.28;;;0.90;;
52708;SDS011;38606;52.986;6.980;2022-07-06T01:00:12;6.72;;;0.90;;
52708;SDS011;38606;52.986;6.980;2022-07-06T01:02:41;3.70;;;0.95;;
52708;SDS011;38606;52.986;6.980;2022-07-06T01:05:07;4.18;;;1.10;;
52708;SDS011;38606;52.986;6.980;2022-07-06T01:07:37;3.05;;;0.90;;
52708;SDS011;38606;52.986;6.980;2022-07-06T01:10:04;3.88;;;1.17;;
52708;SDS011;38606;52.986;6.980;2022-07-06T01:12:33;3.30;;;0.90;;
52708;SDS011;38606;52.986;6.980;2022-07-06T01:15:00;2.15;;;0.90;;
52708;SDS011;38606;52.986;6.980;2022-07-06T01:17:27;3.53;;;1.15;;
52708;SDS011;38606;52.986;6.980;2022-07-06T01:19:53;5.90;;;0.95;;
52708;SDS011;38606;52.986;6.980;2022-07-06T01:22:19;3.90;;;1.00;;
52708;SDS011;38606;52.986;6.980;2022-07-06T01:24:44;2.65;;;1.00;;
52708;SDS011;38606;52.986;6.980;2022-07-06T01:27:10;4.88;;;0.85;;
52708;SDS011;38606;52.986;6.980;2022-07-06T01:29:36;4.78;;;1.17;;
52708;SDS011;38606;52.986;6.980;2022-07-06T01:32:02;5.43;;;1.15;;
52708;SDS011;38606;52.986;6.980;2022-07-06T01:34:27;2.03;;;1.00;;
52708;SDS011;38606;52.986;6.980;2022-07-06T01:36:53;3.33;;;0.93;;
52708;SDS011;38606;52.986;6.980;2022-07-06T01:39:19;2.05;;;1.00;;
52708;SDS011;38606;52.986;6.980;2022-07-06T01:41:45;3.63;;;1.13;;
52708;SDS011;38606;52.986;6.980;2022-07-06T01:44:11;5.55;;;0.98;;
52708;SDS011;38606;52.986;6.980;2022-07-06T01:46:37;4.22;;;0.88;;
52708;SDS011;38606;52.986;6.980;2022-07-06T01:49:03;2.85;;;0.90;;
52708;SDS011;38606;52.986;6.980;2022-07-06T01:51:29;4.32;;;1.27;;
52708;SDS011;38606;52.986;6.980;2022-07-06T01:53:55;5.82;;;1.13;;
52708;SDS011;38606;52.986;6.980;2022-07-06T01:56:21;3.58;;;1.30;;
52708;SDS011;38606;52.986;6.980;2022-07-06T01:58:47;5.35;;;1.10;;
52708;SDS011;38606;52.986;6.980;2022-07-06T02:01:22;6.35;;;1.40;;
52708;SDS011;38606;52.986;6.980;2022-07-06T02:03:48;3.72;;;1.10;;
52708;SDS011;38606;52.986;6.980;2022-07-06T02:06:14;4.80;;;1.30;;
52708;SDS011;38606;52.986;6.980;2022-07-06T02:08:40;1.95;;;0.80;;
52708;SDS011;38606;52.986;6.980;2022-07-06T02:11:07;3.47;;;1.70;;
52708;SDS011;38606;52.986;6.980;2022-07-06T02:13:34;4.30;;;1.20;;
52708;SDS011;38606;52.986;6.980;2022-07-06T02:16:00;2.13;;;1.10;;
52708;SDS011;38606;52.986;6.980;2022-07-06T02:18:26;3.22;;;1.40;;
52708;SDS011;38606;52.986;6.980;2022-07-06T02:20:52;6.93;;;1.40;;
52708;SDS011;38606;52.986;6.980;2022-07-06T02:23:17;2.58;;;1.20;;
52708;SDS011;38606;52.986;6.980;2022-07-06T02:25:43;3.45;;;1.10;;
52708;SDS011;38606;52.986;6.980;2022-07-06T02:28:09;4.00;;;1.25;;
52708;SDS011;38606;52.986;6.980;2022-07-06T02:30:35;5.85;;;1.13;;
52708;SDS011;38606;52.986;6.980;2022-07-06T02:33:00;2.30;;;1.00;;
52708;SDS011;38606;52.986;6.980;2022-07-06T02:35:26;6.70;;;1.33;;
52708;SDS011;38606;52.986;6.980;2022-07-06T02:37:52;3.38;;;1.00;;
52708;SDS011;38606;52.986;6.980;2022-07-06T02:40:17;5.45;;;1.17;;
52708;SDS011;38606;52.986;6.980;2022-07-06T02:42:43;5.43;;;0.98;;
52708;SDS011;38606;52.986;6.980;2022-07-06T02:45:09;5.22;;;1.65;;
52708;SDS011;38606;52.986;6.980;2022-07-06T02:47:35;2.92;;;1.05;;
52708;SDS011;38606;52.986;6.980;2022-07-06T02:50:02;3.28;;;1.10;;
52708;SDS011;38606;52.986;6.980;2022-07-06T02:52:28;6.00;;;1.38;;
52708;SDS011;38606;52.986;6.980;2022-07-06T02:54:53;4.63;;;1.23;;
52708;SDS011;38606;52.986;6.980;2022-07-06T02:57:19;4.85;;;1.30;;
52708;SDS011;38606;52.986;6.980;2022-07-06T02:59:45;3.25;;;1.02;;
52708;SDS011;38606;52.986;6.980;2022-07-06T03:02:11;6.93;;;1.10;;
52708;SDS011;38606;52.986;6.980;2022-07-06T03:04:36;3.17;;;0.90;;
52708;SDS011;38606;52.986;6.980;2022-07-06T03:07:02;5.00;;;1.45;;
52708;SDS011;38606;52.986;6.980;2022-07-06T03:09:28;4.35;;;1.38;;
52708;SDS011;38606;52.986;6.980;2022-07-06T03:11:54;3.40;;;1.00;;
52708;SDS011;38606;52.986;6.980;2022-07-06T03:14:19;5.30;;;1.13;;
52708;SDS011;38606;52.986;6.980;2022-07-06T03:16:45;2.60;;;1.15;;
52708;SDS011;38606;52.986;6.980;2022-07-06T03:19:11;2.65;;;1.13;;
52708;SDS011;38606;52.986;6.980;2022-07-06T03:21:37;2.50;;;0.98;;
52708;SDS011;38606;52.986;6.980;2022-07-06T03:24:02;4.15;;;1.10;;
52708;SDS011;38606;52.986;6.980;2022-07-06T03:26:29;3.83;;;1.15;;
52708;SDS011;38606;52.986;6.980;2022-07-06T03:28:54;6.70;;;1.90;;
52708;SDS011;38606;52.986;6.980;2022-07-06T03:31:20;5.65;;;1.20;;
52708;SDS011;38606;52.986;6.980;2022-07-06T03:33:45;5.65;;;1.20;;
52708;SDS011;38606;52.986;6.980;2022-07-06T03:36:11;5.45;;;1.10;;
52708;SDS011;38606;52.986;6.980;2022-07-06T03:38:37;7.10;;;1.20;;
52708;SDS011;38606;52.986;6.980;2022-07-06T03:41:03;3.78;;;1.40;;
52708;SDS011;38606;52.986;6.980;2022-07-06T03:43:28;5.45;;;1.20;;
52708;SDS011;38606;52.986;6.980;2022-07-06T03:45:54;4.05;;;1.00;;
52708;SDS011;38606;52.986;6.980;2022-07-06T03:48:20;5.25;;;1.23;;
52708;SDS011;38606;52.986;6.980;2022-07-06T03:50:45;4.75;;;1.30;;
52708;SDS011;38606;52.986;6.980;2022-07-06T03:53:11;5.80;;;1.10;;
52708;SDS011;38606;52.986;6.980;2022-07-06T03:55:37;3.95;;;1.10;;
52708;SDS011;38606;52.986;6.980;2022-07-06T03:58:02;5.30;;;2.30;;
52708;SDS011;38606;52.986;6.980;2022-07-06T04:00:28;8.40;;;1.45;;
52708;SDS011;38606;52.986;6.980;2022-07-06T04:02:54;5.75;;;1.20;;
52708;SDS011;38606;52.986;6.980;2022-07-06T04:05:19;7.95;;;1.23;;
52708;SDS011;38606;52.986;6.980;2022-07-06T04:07:49;5.40;;;1.10;;
52708;SDS011;38606;52.986;6.980;2022-07-06T04:10:15;4.07;;;1.20;;
52708;SDS011;38606;52.986;6.980;2022-07-06T04:12:44;9.00;;;1.58;;
52708;SDS011;38606;52.986;6.980;2022-07-06T04:15:11;3.83;;;1.33;;
52708;SDS011;38606;52.986;6.980;2022-07-06T04:17:37;2.67;;;1.00;;
52708;SDS011;38606;52.986;6.980;2022-07-06T04:20:19;4.13;;;1.30;;
52708;SDS011;38606;52.986;6.980;2022-07-06T04:22:46;4.85;;;1.10;;
52708;SDS011;38606;52.986;6.980;2022-07-06T04:25:12;5.60;;;1.20;;
52708;SDS011;38606;52.986;6.980;2022-07-06T04:27:38;4.50;;;0.93;;
52708;SDS011;38606;52.986;6.980;2022-07-06T04:30:04;8.15;;;1.10;;
52708;SDS011;38606;52.986;6.980;2022-07-06T04:32:31;4.45;;;1.10;;
52708;SDS011;38606;52.986;6.980;2022-07-06T04:34:56;5.82;;;1.20;;
52708;SDS011;38606;52.986;6.980;2022-07-06T04:37:22;5.55;;;1.38;;
52708;SDS011;38606;52.986;6.980;2022-07-06T04:39:48;6.40;;;1.00;;
52708;SDS011;38606;52.986;6.980;2022-07-06T04:42:13;4.93;;;1.13;;
52708;SDS011;38606;52.986;6.980;2022-07-06T04:44:39;5.95;;;1.10;;
52708;SDS011;38606;52.986;6.980;2022-07-06T04:47:05;4.22;;;1.25;;
52708;SDS011;38606;52.986;6.980;2022-07-06T04:49:31;4.55;;;1.00;;
52708;SDS011;38606;52.986;6.980;2022-07-06T04:51:57;5.20;;;1.10;;
52708;SDS011;38606;52.986;6.980;2022-07-06T04:54:23;4.90;;;1.20;;
52708;SDS011;38606;52.986;6.980;2022-07-06T04:56:49;6.28;;;1.10;;
52708;SDS011;38606;52.986;6.980;2022-07-06T04:59:14;4.60;;;1.00;;
52708;SDS011;38606;52.986;6.980;2022-07-06T05:01:40;5.65;;;1.17;;
52708;SDS011;38606;52.986;6.980;2022-07-06T05:04:06;1.83;;;0.80;;
52708;SDS011;38606;52.986;6.980;2022-07-06T05:06:33;2.97;;;1.27;;
52708;SDS011;38606;52.986;6.980;2022-07-06T05:08:58;5.07;;;1.00;;
52708;SDS011;38606;52.986;6.980;2022-07-06T05:11:25;4.43;;;1.05;;
52708;SDS011;38606;52.986;6.980;2022-07-06T05:13:51;4.53;;;0.90;;
52708;SDS011;38606;52.986;6.980;2022-07-06T05:16:17;4.88;;;0.95;;
52708;SDS011;38606;52.986;6.980;2022-07-06T05:18:43;2.92;;;0.77;;
52708;SDS011;38606;52.986;6.980;2022-07-06T05:21:09;3.97;;;1.08;;
52708;SDS011;38606;52.986;6.980;2022-07-06T05:23:34;6.03;;;1.05;;
52708;SDS011;38606;52.986;6.980;2022-07-06T05:26:00;5.40;;;0.82;;
52708;SDS011;38606;52.986;6.980;2022-07-06T05:28:26;3.58;;;0.85;;
52708;SDS011;38606;52.986;6.980;2022-07-06T05:30:51;5.85;;;0.70;;
52708;SDS011;38606;52.986;6.980;2022-07-06T05:33:17;3.40;;;1.00;;
52708;SDS011;38606;52.986;6.980;2022-07-06T05:35:43;2.75;;;0.90;;
52708;SDS011;38606;52.986;6.980;2022-07-06T05:38:10;6.07;;;1.08;;
52708;SDS011;38606;52.986;6.980;2022-07-06T05:40:36;5.57;;;0.95;;
52708;SDS011;38606;52.986;6.980;2022-07-06T05:43:01;6.88;;;1.60;;
52708;SDS011;38606;52.986;6.980;2022-07-06T05:45:28;2.95;;;0.80;;
52708;SDS011;38606;52.986;6.980;2022-07-06T05:47:54;3.80;;;1.48;;
52708;SDS011;38606;52.986;6.980;2022-07-06T05:50:38;3.03;;;0.70;;
52708;SDS011;38606;52.986;6.980;2022-07-06T05:53:05;4.72;;;0.88;;
52708;SDS011;38606;52.986;6.980;2022-07-06T05:55:31;5.20;;;1.00;;
52708;SDS011;38606;52.986;6.980;2022-07-06T05:57:57;4.43;;;0.73;;
52708;SDS011;38606;52.986;6.980;2022-07-06T06:00:23;3.20;;;1.05;;
52708;SDS011;38606;52.986;6.980;2022-07-06T06:02:49;4.68;;;0.70;;
52708;SDS011;38606;52.986;6.980;2022-07-06T06:05:16;5.90;;;1.00;;
52708;SDS011;38606;52.986;6.980;2022-07-06T06:07:42;4.00;;;0.68;;
52708;SDS011;38606;52.986;6.980;2022-07-06T06:10:09;4.10;;;0.80;;
52708;SDS011;38606;52.986;6.980;2022-07-06T06:12:37;3.65;;;1.25;;
52708;SDS011;38606;52.986;6.980;2022-07-06T06:15:04;3.63;;;0.98;;
52708;SDS011;38606;52.986;6.980;2022-07-06T06:17:30;5.65;;;0.85;;
52708;SDS011;38606;52.986;6.980;2022-07-06T06:19:56;4.65;;;0.80;;
52708;SDS011;38606;52.986;6.980;2022-07-06T06:22:23;3.15;;;0.60;;
52708;SDS011;38606;52.986;6.980;2022-07-06T06:24:49;3.17;;;0.73;;
52708;SDS011;38606;52.986;6.980;2022-07-06T06:27:15;3.47;;;0.73;;
52708;SDS011;38606;52.986;6.980;2022-07-06T06:29:40;4.10;;;0.60;;
52708;SDS011;38606;52.986;6.980;2022-07-06T06:32:07;3.05;;;0.90;;
52708;SDS011;38606;52.986;6.980;2022-07-06T06:34:33;2.95;;;0.75;;
52708;SDS011;38606;52.986;6.980;2022-07-06T06:36:59;3.63;;;0.60;;
52708;SDS011;38606;52.986;6.980;2022-07-06T06:39:25;4.07;;;0.90;;
52708;SDS011;38606;52.986;6.980;2022-07-06T06:41:50;5.18;;;1.08;;
52708;SDS011;38606;52.986;6.980;2022-07-06T06:44:16;4.35;;;0.85;;
52708;SDS011;38606;52.986;6.980;2022-07-06T06:46:43;5.57;;;0.80;;
52708;SDS011;38606;52.986;6.980;2022-07-06T06:49:09;3.63;;;0.70;;
52708;SDS011;38606;52.986;6.980;2022-07-06T06:51:35;2.88;;;0.70;;
52708;SDS011;38606;52.986;6.980;2022-07-06T06:54:03;5.03;;;0.80;;
52708;SDS011;38606;52.986;6.980;2022-07-06T06:56:29;4.20;;;0.68;;
52708;SDS011;38606;52.986;6.980;2022-07-06T06:58:54;3.17;;;0.52;;
52708;SDS011;38606;52.986;6.980;2022-07-06T07:01:20;3.90;;;0.52;;
52708;SDS011;38606;52.986;6.980;2022-07-06T07:03:46;3.75;;;0.70;;
52708;SDS011;38606;52.986;6.980;2022-07-06T07:06:12;3.50;;;0.70;;
52708;SDS011;38606;52.986;6.980;2022-07-06T07:08:37;3.45;;;0.60;;
52708;SDS011;38606;52.986;6.980;2022-07-06T07:11:03;3.13;;;0.70;;
52708;SDS011;38606;52.986;6.980;2022-07-06T07:13:29;4.13;;;1.35;;
52708;SDS011;38606;52.986;6.980;2022-07-06T07:15:54;4.90;;;0.60;;
52708;SDS011;38606;52.986;6.980;2022-07-06T07:18:20;5.80;;;0.90;;
52708;SDS011;38606;52.986;6.980;2022-07-06T07:20:46;3.25;;;0.85;;
52708;SDS011;38606;52.986;6.980;2022-07-06T07:23:11;3.42;;;0.70;;
52708;SDS011;38606;52.986;6.980;2022-07-06T07:25:37;2.55;;;0.60;;
52708;SDS011;38606;52.986;6.980;2022-07-06T07:28:06;6.07;;;0.80;;
52708;SDS011;38606;52.986;6.980;2022-07-06T07:30:31;3.78;;;0.73;;
52708;SDS011;38606;52.986;6.980;2022-07-06T07:32:57;4.88;;;0.70;;
52708;SDS011;38606;52.986;6.980;2022-07-06T07:35:25;3.80;;;0.52;;
52708;SDS011;38606;52.986;6.980;2022-07-06T07:37:51;3.78;;;0.98;;
52708;SDS011;38606;52.986;6.980;2022-07-06T07:40:17;8.27;;;0.75;;
52708;SDS011;38606;52.986;6.980;2022-07-06T07:42:43;5.53;;;0.60;;
52708;SDS011;38606;52.986;6.980;2022-07-06T07:45:10;3.28;;;0.65;;
52708;SDS011;38606;52.986;6.980;2022-07-06T07:47:37;2.20;;;0.63;;
52708;SDS011;38606;52.986;6.980;2022-07-06T07:50:03;4.13;;;0.60;;
52708;SDS011;38606;52.986;6.980;2022-07-06T07:52:30;4.25;;;0.63;;
52708;SDS011;38606;52.986;6.980;2022-07-06T07:54:56;2.10;;;0.50;;
52708;SDS011;38606;52.986;6.980;2022-07-06T07:57:22;11.15;;;1.25;;
52708;SDS011;38606;52.986;6.980;2022-07-06T07:59:47;7.50;;;1.05;;
52708;SDS011;38606;52.986;6.980;2022-07-06T08:02:13;8.05;;;0.70;;
52708;SDS011;38606;52.986;6.980;2022-07-06T08:04:39;4.80;;;0.75;;
52708;SDS011;38606;52.986;6.980;2022-07-06T08:07:05;4.32;;;0.70;;
52708;SDS011;38606;52.986;6.980;2022-07-06T08:09:31;4.70;;;0.52;;
52708;SDS011;38606;52.986;6.980;2022-07-06T08:11:57;3.78;;;0.70;;
52708;SDS011;38606;52.986;6.980;2022-07-06T08:14:23;4.68;;;0.90;;
52708;SDS011;38606;52.986;6.980;2022-07-06T08:16:49;5.28;;;0.88;;
52708;SDS011;38606;52.986;6.980;2022-07-06T08:19:15;4.68;;;0.70;;
52708;SDS011;38606;52.986;6.980;2022-07-06T08:21:41;6.32;;;0.93;;
52708;SDS011;38606;52.986;6.980;2022-07-06T08:24:07;6.03;;;0.77;;
52708;SDS011;38606;52.986;6.980;2022-07-06T08:26:33;6.03;;;0.93;;
52708;SDS011;38606;52.986;6.980;2022-07-06T08:28:59;4.75;;;0.73;;
52708;SDS011;38606;52.986;6.980;2022-07-06T08:31:25;2.35;;;0.45;;
52708;SDS011;38606;52.986;6.980;2022-07-06T08:33:54;2.50;;;0.60;;
52708;SDS011;38606;52.986;6.980;2022-07-06T08:36:21;3.33;;;0.68;;
52708;SDS011;38606;52.986;6.980;2022-07-06T08:38:47;2.20;;;0.40;;
52708;SDS011;38606;52.986;6.980;2022-07-06T08:41:14;2.15;;;0.70;;
52708;SDS011;38606;52.986;6.980;2022-07-06T08:43:41;3.75;;;0.77;;
52708;SDS011;38606;52.986;6.980;2022-07-06T08:46:07;2.53;;;0.52;;
52708;SDS011;38606;52.986;6.980;2022-07-06T08:48:36;3.35;;;0.40;;
52708;SDS011;38606;52.986;6.980;2022-07-06T08:51:04;3.28;;;0.73;;
52708;SDS011;38606;52.986;6.980;2022-07-06T08:53:30;2.30;;;0.40;;
52708;SDS011;38606;52.986;6.980;2022-07-06T08:55:56;3.85;;;0.75;;
52708;SDS011;38606;52.986;6.980;2022-07-06T08:58:25;3.83;;;0.60;;
52708;SDS011;38606;52.986;6.980;2022-07-06T09:00:56;4.80;;;0.63;;
52708;SDS011;38606;52.986;6.980;2022-07-06T09:03:22;4.25;;;0.80;;
52708;SDS011;38606;52.986;6.980;2022-07-06T09:05:48;4.22;;;0.95;;
52708;SDS011;38606;52.986;6.980;2022-07-06T09:08:17;5.45;;;0.77;;
52708;SDS011;38606;52.986;6.980;2022-07-06T09:10:43;5.03;;;0.90;;
52708;SDS011;38606;52.986;6.980;2022-07-06T09:13:09;3.78;;;0.70;;
52708;SDS011;38606;52.986;6.980;2022-07-06T09:15:35;6.40;;;1.13;;
52708;SDS011;38606;52.986;6.980;2022-07-06T09:18:04;2.95;;;1.17;;
52708;SDS011;38606;52.986;6.980;2022-07-06T09:20:30;7.75;;;0.80;;
52708;SDS011;38606;52.986;6.980;2022-07-06T09:23:00;4.60;;;0.88;;
52708;SDS011;38606;52.986;6.980;2022-07-06T09:25:27;6.15;;;0.80;;
52708;SDS011;38606;52.986;6.980;2022-07-06T09:27:54;3.58;;;0.60;;
52708;SDS011;38606;52.986;6.980;2022-07-06T09:30:22;5.15;;;0.60;;
52708;SDS011;38606;52.986;6.980;2022-07-06T09:32:52;4.75;;;0.77;;
52708;SDS011;38606;52.986;6.980;2022-07-06T09:38:02;4.05;;;0.60;;
52708;SDS011;38606;52.986;6.980;2022-07-06T09:40:33;5.97;;;0.70;;
52708;SDS011;38606;52.986;6.980;2022-07-06T09:43:07;2.72;;;0.50;;
52708;SDS011;38606;52.986;6.980;2022-07-06T09:48:23;2.15;;;0.50;;
52708;SDS011;38606;52.986;6.980;2022-07-06T09:50:54;5.13;;;0.68;;
52708;SDS011;38606;52.986;6.980;2022-07-06T09:53:27;3.35;;;0.70;;
52708;SDS011;38606;52.986;6.980;2022-07-06T09:55:55;2.38;;;0.60;;
52708;SDS011;38606;52.986;6.980;2022-07-06T09:58:23;4.03;;;0.50;;
52708;SDS011;38606;52.986;6.980;2022-07-06T10:00:49;3.25;;;0.38;;
52708;SDS011;38606;52.986;6.980;2022-07-06T10:03:16;3.05;;;0.32;;
52708;SDS011;38606;52.986;6.980;2022-07-06T10:05:44;4.13;;;0.50;;
52708;SDS011;38606;52.986;6.980;2022-07-06T10:08:12;3.58;;;0.40;;
52708;SDS011;38606;52.986;6.980;2022-07-06T10:10:39;1.92;;;0.40;;
52708;SDS011;38606;52.986;6.980;2022-07-06T10:13:07;2.60;;;0.60;;
52708;SDS011;38606;52.986;6.980;2022-07-06T10:15:33;4.15;;;0.38;;
52708;SDS011;38606;52.986;6.980;2022-07-06T10:18:04;4.28;;;0.60;;
52708;SDS011;38606;52.986;6.980;2022-07-06T10:20:36;1.92;;;0.38;;
52708;SDS011;38606;52.986;6.980;2022-07-06T10:23:04;3.28;;;0.60;;
52708;SDS011;38606;52.986;6.980;2022-07-06T10:25:31;3.70;;;0.50;;
52708;SDS011;38606;52.986;6.980;2022-07-06T10:27:58;1.65;;;0.50;;
52708;SDS011;38606;52.986;6.980;2022-07-06T10:30:25;2.30;;;0.40;;
52708;SDS011;38606;52.986;6.980;2022-07-06T10:32:52;5.05;;;0.55;;
52708;SDS011;38606;52.986;6.980;2022-07-06T10:35:20;2.33;;;0.47;;
52708;SDS011;38606;52.986;6.980;2022-07-06T10:37:46;3.50;;;0.50;;
52708;SDS011;38606;52.986;6.980;2022-07-06T10:40:32;3.55;;;0.60;;
52708;SDS011;38606;52.986;6.980;2022-07-06T10:43:23;2.83;;;0.40;;
52708;SDS011;38606;52.986;6.980;2022-07-06T10:45:55;2.95;;;0.80;;
52708;SDS011;38606;52.986;6.980;2022-07-06T10:48:21;4.05;;;0.47;;
52708;SDS011;38606;52.986;6.980;2022-07-06T10:50:51;2.22;;;0.43;;
52708;SDS011;38606;52.986;6.980;2022-07-06T10:53:22;2.95;;;0.40;;
52708;SDS011;38606;52.986;6.980;2022-07-06T10:55:49;2.35;;;0.57;;
52708;SDS011;38606;52.986;6.980;2022-07-06T11:01:05;1.70;;;0.50;;
52708;SDS011;38606;52.986;6.980;2022-07-06T11:06:19;4.10;;;0.77;;
52708;SDS011;38606;52.986;6.980;2022-07-06T11:14:00;3.60;;;0.43;;
52708;SDS011;38606;52.986;6.980;2022-07-06T11:16:27;6.13;;;0.50;;
52708;SDS011;38606;52.986;6.980;2022-07-06T11:19:09;1.20;;;0.40;;
52708;SDS011;38606;52.986;6.980;2022-07-06T11:24:10;4.55;;;0.60;;
52708;SDS011;38606;52.986;6.980;2022-07-06T11:26:41;3.22;;;0.50;;
52708;SDS011;38606;52.986;6.980;2022-07-06T11:29:11;2.80;;;0.55;;
52708;SDS011;38606;52.986;6.980;2022-07-06T11:31:42;5.35;;;0.60;;
52708;SDS011;38606;52.986;6.980;2022-07-06T11:34:11;3.28;;;0.63;;
52708;SDS011;38606;52.986;6.980;2022-07-06T11:36:41;6.28;;;1.10;;
52708;SDS011;38606;52.986;6.980;2022-07-06T11:39:07;4.22;;;0.50;;
52708;SDS011;38606;52.986;6.980;2022-07-06T11:41:33;4.15;;;0.50;;
52708;SDS011;38606;52.986;6.980;2022-07-06T11:44:00;2.70;;;0.68;;
52708;SDS011;38606;52.986;6.980;2022-07-06T11:46:27;2.35;;;0.50;;
52708;SDS011;38606;52.986;6.980;2022-07-06T11:48:58;2.97;;;0.52;;
52708;SDS011;38606;52.986;6.980;2022-07-06T11:51:37;6.32;;;1.10;;
52708;SDS011;38606;52.986;6.980;2022-07-06T11:54:09;4.63;;;0.65;;
52708;SDS011;38606;52.986;6.980;2022-07-06T11:56:35;2.15;;;0.50;;
52708;SDS011;38606;52.986;6.980;2022-07-06T11:59:00;1.83;;;0.50;;
52708;SDS011;38606;52.986;6.980;2022-07-06T12:01:27;4.03;;;0.60;;
52708;SDS011;38606;52.986;6.980;2022-07-06T12:03:57;3.28;;;0.70;;
52708;SDS011;38606;52.986;6.980;2022-07-06T12:06:25;2.13;;;0.60;;
52708;SDS011;38606;52.986;6.980;2022-07-06T12:08:55;5.05;;;0.73;;
52708;SDS011;38606;52.986;6.980;2022-07-06T12:11:23;9.27;;;1.15;;
52708;SDS011;38606;52.986;6.980;2022-07-06T12:13:51;14.35;;;1.95;;
52708;SDS011;38606;52.986;6.980;2022-07-06T12:16:19;9.57;;;1.48;;
52708;SDS011;38606;52.986;6.980;2022-07-06T12:18:47;3.03;;;0.50;;
52708;SDS011;38606;52.986;6.980;2022-07-06T12:21:14;4.50;;;0.70;;
52708;SDS011;38606;52.986;6.980;2022-07-06T12:23:52;5.57;;;0.77;;
52708;SDS011;38606;52.986;6.980;2022-07-06T12:26:19;2.53;;;0.68;;
52708;SDS011;38606;52.986;6.980;2022-07-06T12:28:59;3.08;;;0.57;;
52708;SDS011;38606;52.986;6.980;2022-07-06T12:34:04;2.70;;;0.60;;
52708;SDS011;38606;52.986;6.980;2022-07-06T12:36:43;3.75;;;0.80;;
52708;SDS011;38606;52.986;6.980;2022-07-06T12:39:17;2.15;;;0.65;;
52708;SDS011;38606;52.986;6.980;2022-07-06T12:41:46;4.55;;;0.60;;
52708;SDS011;38606;52.986;6.980;2022-07-06T12:44:25;2.53;;;0.52;;
52708;SDS011;38606;52.986;6.980;2022-07-06T12:49:30;4.72;;;0.80;;
52708;SDS011;38606;52.986;6.980;2022-07-06T12:52:00;2.20;;;0.50;;
52708;SDS011;38606;52.986;6.980;2022-07-06T12:54:31;9.15;;;0.80;;
52708;SDS011;38606;52.986;6.980;2022-07-06T12:59:40;2.17;;;0.60;;
52708;SDS011;38606;52.986;6.980;2022-07-06T13:02:16;5.03;;;0.80;;
52708;SDS011;38606;52.986;6.980;2022-07-06T13:07:31;2.65;;;0.50;;
52708;SDS011;38606;52.986;6.980;2022-07-06T13:10:01;3.40;;;0.57;;
52708;SDS011;38606;52.986;6.980;2022-07-06T13:12:29;4.72;;;0.80;;
52708;SDS011;38606;52.986;6.980;2022-07-06T13:14:54;2.25;;;0.50;;
52708;SDS011;38606;52.986;6.980;2022-07-06T13:17:20;1.60;;;0.50;;
52708;SDS011;38606;52.986;6.980;2022-07-06T13:19:46;6.63;;;0.57;;
52708;SDS011;38606;52.986;6.980;2022-07-06T13:22:12;1.90;;;0.60;;
52708;SDS011;38606;52.986;6.980;2022-07-06T13:24:37;2.97;;;0.50;;
52708;SDS011;38606;52.986;6.980;2022-07-06T13:27:03;2.58;;;0.63;;
52708;SDS011;38606;52.986;6.980;2022-07-06T13:29:29;1.70;;;0.57;;
52708;SDS011;38606;52.986;6.980;2022-07-06T13:31:55;4.50;;;0.60;;
52708;SDS011;38606;52.986;6.980;2022-07-06T13:34:21;2.85;;;0.68;;
52708;SDS011;38606;52.986;6.980;2022-07-06T13:36:47;1.65;;;0.47;;
52708;SDS011;38606;52.986;6.980;2022-07-06T13:39:12;1.42;;;0.50;;
52708;SDS011;38606;52.986;6.980;2022-07-06T13:41:38;4.63;;;0.70;;
52708;SDS011;38606;52.986;6.980;2022-07-06T13:44:04;3.08;;;0.73;;
52708;SDS011;38606;52.986;6.980;2022-07-06T13:46:30;1.55;;;0.50;;
52708;SDS011;38606;52.986;6.980;2022-07-06T13:48:57;2.13;;;0.40;;
52708;SDS011;38606;52.986;6.980;2022-07-06T13:51:24;1.75;;;0.35;;
52708;SDS011;38606;52.986;6.980;2022-07-06T13:53:51;2.92;;;0.60;;
52708;SDS011;38606;52.986;6.980;2022-07-06T13:56:18;2.45;;;0.45;;
52708;SDS011;38606;52.986;6.980;2022-07-06T13:58:44;2.47;;;0.50;;
52708;SDS011;38606;52.986;6.980;2022-07-06T14:01:10;3.40;;;0.75;;
52708;SDS011;38606;52.986;6.980;2022-07-06T14:03:37;3.15;;;0.45;;
52708;SDS011;38606;52.986;6.980;2022-07-06T14:06:03;2.60;;;0.80;;
52708;SDS011;38606;52.986;6.980;2022-07-06T14:08:31;1.70;;;0.60;;
52708;SDS011;38606;52.986;6.980;2022-07-06T14:10:57;2.55;;;0.45;;
52708;SDS011;38606;52.986;6.980;2022-07-06T14:13:22;4.07;;;0.70;;
52708;SDS011;38606;52.986;6.980;2022-07-06T14:15:48;3.60;;;0.80;;
52708;SDS011;38606;52.986;6.980;2022-07-06T14:18:15;4.82;;;0.70;;
52708;SDS011;38606;52.986;6.980;2022-07-06T14:20:43;3.30;;;0.73;;
52708;SDS011;38606;52.986;6.980;2022-07-06T14:23:09;1.10;;;0.60;;
52708;SDS011;38606;52.986;6.980;2022-07-06T14:25:36;3.50;;;0.63;;
52708;SDS011;38606;52.986;6.980;2022-07-06T14:28:02;2.25;;;0.57;;
52708;SDS011;38606;52.986;6.980;2022-07-06T14:30:28;1.58;;;0.50;;
52708;SDS011;38606;52.986;6.980;2022-07-06T14:32:54;1.92;;;0.80;;
52708;SDS011;38606;52.986;6.980;2022-07-06T14:35:20;3.28;;;0.60;;
52708;SDS011;38606;52.986;6.980;2022-07-06T14:37:46;3.30;;;0.98;;
52708;SDS011;38606;52.986;6.980;2022-07-06T14:40:12;5.78;;;0.60;;
52708;SDS011;38606;52.986;6.980;2022-07-06T14:42:38;3.20;;;0.45;;
52708;SDS011;38606;52.986;6.980;2022-07-06T14:45:04;4.50;;;0.70;;
52708;SDS011;38606;52.986;6.980;2022-07-06T14:47:30;2.78;;;0.95;;
52708;SDS011;38606;52.986;6.980;2022-07-06T14:49:56;4.25;;;0.60;;
52708;SDS011;38606;52.986;6.980;2022-07-06T14:52:21;1.73;;;0.60;;
52708;SDS011;38606;52.986;6.980;2022-07-06T14:54:47;2.13;;;0.50;;
52708;SDS011;38606;52.986;6.980;2022-07-06T14:57:13;5.57;;;0.60;;
52708;SDS011;38606;52.986;6.980;2022-07-06T14:59:38;2.58;;;0.57;;
52708;SDS011;38606;52.986;6.980;2022-07-06T15:02:04;2.25;;;0.60;;
52708;SDS011;38606;52.986;6.980;2022-07-06T15:04:30;2.88;;;0.50;;
52708;SDS011;38606;52.986;6.980;2022-07-06T15:06:55;5.25;;;0.50;;
52708;SDS011;38606;52.986;6.980;2022-07-06T15:09:21;2.72;;;0.57;;
52708;SDS011;38606;52.986;6.980;2022-07-06T15:11:47;2.13;;;0.60;;
52708;SDS011;38606;52.986;6.980;2022-07-06T15:14:13;2.60;;;0.80;;
52708;SDS011;38606;52.986;6.980;2022-07-06T15:16:41;4.18;;;0.60;;